Bodega Marine Reserve, California Weather observations

Data are for 10 minute period ending at time listed.
 Day   Time   Solar   Ave.   Ave.  Ave.  Vector  Max.   Baro.   Total    
  of    of     Rad.   Air    Rel.  Wind   Wind   Wind  Press.  Precip.   
Year   Day            Temp.  Hum.  Speed  Dir.   Gust                    
2015   (PST)  Kw/m2    F      %     mph   deg.    mph    mb.     in.     
-------------------------------------------------------------------------
 212    3:10   0.00   57.9    96    5.9   306     7.9   1013.2    0.00 
 212    3:20   0.00   57.8    96    5.9   304     7.6   1013.2    0.00 
 212    3:30   0.00   57.8    96    5.9   305     8.2   1013.2    0.00 
 212    3:40   0.00   57.8    96    6.2   300     7.6   1013.5    0.00 
 212    3:50   0.00   57.7    96    5.7   306     7.5   1013.5    0.00 
 212    4:00   0.00   57.7    96    5.6   304     7.1   1013.2    0.00 
 212    4:10   0.00   57.7    96    6.3   304     8.7   1013.2    0.00 
 212    4:20   0.00   57.7    96    6.1   300     8.4   1013.2    0.01 
 212    4:30   0.00   57.6    96    6.6   301     9.1   1013.2    0.00 
 212    4:40   0.00   57.6    96    5.2   300     7.7   1013.2    0.00 
 212    4:50   0.00   57.6    96    6.3   306     7.9   1013.5    0.00 
 212    5:00   0.00   57.5    96    5.5   301     7.4   1013.5    0.00 
 212    5:10   100.00  99999.0   99999  99999.0   99999   99999.0   99999.0   99999.00 
 212    5:20   100.00  99999.0   99999  99999.0   99999   99999.0   99999.0   99999.00 
 212    5:30   100.00  99999.0   99999  99999.0   99999   99999.0   99999.0   99999.00 
 212    5:40   100.00  99999.0   99999  99999.0   99999   99999.0   99999.0   99999.00 
 212    5:50   100.00  99999.0   99999  99999.0   99999   99999.0   99999.0   99999.00 
 212    6:00   2.31   41.9   301  500.0     0     0.0   927.2   14.19 
 212    6:10   0.02   57.8    96    3.7   283     5.0   1013.9    0.00 
 212    6:20   0.03   57.8    96    4.5   295     6.5   1014.2    0.00 
 212    6:30   0.04   57.9    96    4.3   295     5.8   1014.2    0.00 
 212    6:40   0.05   58.1    96    4.1   290     6.1   1014.6    0.00 
 212    6:50   0.06   58.4    97    4.8   291     7.0   1014.6    0.00 
 212    7:00   0.08   58.5    96    5.6   297     8.3   1014.6    0.00 
 212    7:10   0.08   58.7    96    5.3   298     7.2   1014.6    0.00 
 212    7:20   0.10   58.5    96    4.8   305     6.5   1014.6    0.00 
 212    7:30   0.11   58.8    96    4.2   290     6.0   1014.6    0.00 
 212    7:40   0.11   58.9    96    5.4   302     8.1   1014.6    0.00 
 212    7:50   0.11   58.8    96    5.9   304     8.3   1014.6    0.00 
 212    8:00   0.13   58.7    96    4.8   302     7.1   1014.6    0.00 
 212    8:10   0.14   58.9    96    4.2   302     5.8   1014.9    0.00 
 212    8:20   0.16   59.2    96    3.9   274     5.8   1014.6    0.00 
 212    8:30   0.17   59.1    96    4.6   266     6.1   1014.6    0.00 
 212    8:40   0.17   59.2    96    4.1   274     5.5   1014.6    0.00 
 212    8:50   0.19   59.1    96    3.3   265     5.0   1014.6    0.00 
 212    9:00   0.19   59.2    96    3.7   269     4.9   1014.6    0.00 
 212    9:10   0.22   59.6    96    4.2   262     6.0   1014.6    0.00 
 212    9:20   0.23   59.5    96    3.4   276     5.0   1014.6    0.00 
 212    9:30   0.25   59.5    96    4.3   312     6.1   1014.6    0.00 
 212    9:40   0.29   59.7    96    3.5   306     5.0   1014.9    0.00 
 212    9:50   0.27   60.4    96    3.3   269     5.0   1014.9    0.00 
 212   10:00   0.33   60.2    96    3.0   283     4.7   1014.9    0.00 
 212   10:10   0.34   60.6    96    2.9   267     4.8   1014.9    0.00 
 212   10:20   0.40   61.1    96    4.4   235     5.8   1014.9    0.00 
 212   10:30   0.47   61.6    95    3.9   268     7.0   1014.9    0.00 
 212   10:40   0.41   60.9    94    5.0   289     7.0   1014.6    0.00 
 212   10:50   0.51   61.1    94    5.1   278     7.4   1014.6    0.00 
 212   11:00   0.45   61.8    93    5.9   278     7.7   1014.6    0.00 
 212   11:10   0.39   62.3    91    5.9   300     8.8   1014.6    0.00 
 212   11:20   0.40   62.2    90    6.4   301     8.8   1014.6    0.00 
 212   11:30   0.44   62.5    89    7.0   277     9.7   1014.6    0.00 
 212   11:40   0.42   62.3    88    7.4   280     9.3   1014.2    0.00 
 212   11:50   0.44   62.4    87    7.5   277     9.9   1014.2    0.00 
 212   12:00   0.46   62.6    86    7.5   275    10.0   1014.2    0.00 
 212   12:10   0.42   62.9    84    8.0   274    10.7   1014.2    0.00 
 212   12:20   0.47   62.5    85    7.4   285    10.2   1013.9    0.00 
 212   12:30   0.40   62.4    85    7.6   284     9.3   1013.9    0.00 
 212   12:40   0.41   62.3    85    6.9   278     8.9   1014.2    0.00 
 212   12:50   0.43   62.7    85    6.4   274     9.1   1014.2    0.00 
 212   13:00   0.38   63.4    83    5.5   264     9.8   1014.2    0.00 
 212   13:10   0.35   62.7    84    5.4   249     8.0   1014.6    0.00 
 212   13:20   0.33   63.6    83    5.3   230     9.9   1014.6    0.00 
 212   13:30   0.35   63.5    83    5.8   234     9.3   1014.6    0.00 
 212   13:40   0.32   63.0    84    5.6   245     8.6   1014.6    0.00 
 212   13:50   0.25   63.0    84    6.6   244    10.4   1014.6    0.00 
 212   14:00   0.29   63.2    84    5.9   258     8.6   1014.2    0.00 
 212   14:10   0.31   63.0    83    6.5   254     8.6   1014.2    0.00 
 212   14:20   0.38   63.8    82    6.1   272     9.9   1014.2    0.00 
 212   14:30   0.33   63.8    81    6.2   268     8.6   1014.2    0.00 
 212   14:40   0.34   63.9    81    7.0   276    10.3   1014.2    0.00 
 212   14:50   0.35   63.7    82    7.2   280    10.4   1014.2    0.00 
 212   15:00   0.26   64.0    81    7.3   283    10.3   1013.9    0.00 
 212   15:10   0.17   63.2    83    7.8   286    10.5   1013.9    0.00 
 212   15:20   0.16   63.0    84    7.2   280     9.9   1013.9    0.00 
 212   15:30   0.13   62.8    84    6.4   281     9.9   1013.5    0.00 
 212   15:40   0.12   62.6    84    6.9   280     9.6   1013.5    0.00 
 212   15:50   0.14   62.6    84    6.4   277     9.1   1013.5    0.00 
 212   16:00   0.13   62.8    84    6.3   262     8.6   1013.5    0.00 
 212   16:10   100.00  99999.0   99999  99999.0   99999   99999.0   99999.0   99999.00 
 212   16:20   100.00  99999.0   99999  99999.0   99999   99999.0   99999.0   99999.00 
 212   16:30   100.00  99999.0   99999  99999.0   99999   99999.0   99999.0   99999.00 
 212   16:40   100.00  99999.0   99999  99999.0   99999   99999.0   99999.0   99999.00 
 212   16:50   100.00  99999.0   99999  99999.0   99999   99999.0   99999.0   99999.00 
 212   17:00   100.00  99999.0   99999  99999.0   99999   99999.0   99999.0   99999.00 
 212   17:10   0.14   62.5    86    7.7   286    11.1   1012.9    0.00 
 212   17:20   0.10   62.3    86    6.3   284     9.4   1012.9    0.00 
 212   17:30   0.09   62.1    86    7.4   284     9.8   1012.9    0.00 
 212   17:40   0.09   61.8    87    7.1   289    10.4   1012.9    0.00 
 212   17:50   0.07   61.7    87    7.4   285    10.3   1012.9    0.00 
 212   18:00   0.08   61.5    87    8.7   286    11.8   1012.5    0.00 
 212   18:10   0.08   61.5    87    8.2   278    11.0   1012.9    0.00 
 212   18:20   0.09   61.6    87    7.5   281    10.2   1012.9    0.00 
 212   18:30   0.11   61.9    86    7.5   280    11.2   1012.9    0.00 
 212   18:40   0.06   61.5    86    6.9   280     9.7   1013.2    0.00 
 212   18:50   0.03   61.1    87    6.9   284    10.0   1013.2    0.00 
 212   19:00   0.01   60.9    88    6.7   286     9.9   1012.9    0.00 
 212   19:10   0.01   60.7    88    7.5   284    10.7   1012.9    0.00 
 212   19:20   0.00   60.5    89    7.1   284     9.5   1013.2    0.00 
 212   19:30   0.00   60.3    89    7.4   286    11.0   1013.2    0.00 
 212   19:40   0.00   60.2    89    7.3   285    10.2   1013.2    0.00 
 212   19:50   0.00   60.2    89    7.0   281     9.2   1013.2    0.00 
 212   20:00   0.00   60.1    89    7.2   276    10.6   1013.2    0.00 
 212   20:10   0.00   60.0    89    7.3   283     9.9   1013.2    0.00 
 212   20:20   0.00   60.1    89    6.7   284    10.3   1013.2    0.00 
 212   20:30   0.00   60.1    88    7.7   291    11.0   1013.2    0.00 
 212   20:40   0.00   60.1    88    8.1   290    11.8   1013.2    0.00 
 212   20:50   0.00   60.1    88    7.5   292    10.3   1013.2    0.00 
 212   21:00   0.00   60.0    88    7.6   288    10.1   1013.2    0.00 
 212   21:10   0.00   60.0    89    7.5   286    10.4   1013.2    0.00 
 212   21:20   0.00   59.9    89    7.3   284    10.4   1013.2    0.00 
 212   21:30   0.00   59.9    89    7.6   278    11.7   1013.2    0.00 
 212   21:40   0.00   59.8    89    7.0   284     9.9   1013.2    0.00 
 212   21:50   0.00   59.8    89    8.2   288    12.1   1013.2    0.00 
 212   22:00   0.00   59.8    89    7.4   286    10.7   1013.2    0.00 
 212   22:10   0.00   59.8    89    7.5   284    10.4   1013.2    0.00 
 212   22:20   0.00   59.8    90    7.1   287     9.5   1013.2    0.00 
 212   22:30   0.00   59.7    90    6.6   283     9.4   1013.2    0.00 
 212   22:40   0.00   59.7    90    7.3   283    11.5   1013.2    0.00 
 212   22:50   0.00   59.7    90    7.3   286     9.5   1013.2    0.00 
 212   23:00   0.00   59.6    90    6.9   290     9.9   1013.2    0.00 
 212   23:10   0.00   59.6    90    7.0   287     9.6   1013.2    0.00 
 212   23:20   0.00   59.5    90    6.1   288     9.4   1013.2    0.00 
 212   23:30   0.00   59.4    90    6.0   290     8.8   1012.9    0.00 
 212   23:40   0.00   59.4    90    5.0   294     7.5   1012.9    0.00 
 212   23:50   0.00   59.3    90    6.0   287     9.0   1012.9    0.00 
 213    0:00   0.00   59.2    90    5.5   284     8.3   1013.2    0.00 
 213    0:10   0.00   59.2    90    6.3   273     9.1   1012.9    0.00 
 213    0:20   0.00   59.1    90    5.9   275    10.0   1012.9    0.00 
 213    0:30   0.00   59.2    90    5.9   282     8.8   1012.9    0.00 
 213    0:40   0.00   59.2    90    6.6   287    10.2   1012.9    0.00 
 213    0:50   0.00   59.2    90    5.9   280     8.3   1012.5    0.00 
 213    1:00   0.00   59.2    90    5.0   289     7.8   1012.9    0.00 
 213    1:10   0.00   59.2    90    6.2   286     9.1   1012.5    0.00 
 213    1:20   0.00   59.1    90    4.6   284     7.7   1012.5    0.00 
 213    1:30   0.00   59.1    89    4.9   287     8.2   1012.5    0.00 
 213    1:40   0.00   59.1    89    4.4   286     6.6   1012.5    0.00 
 213    1:50   0.00   59.1    89    3.5   310     4.9   1012.9    0.00 
 213    2:00   0.00   59.0    89    4.6   303     6.0   1012.9    0.00 
 213    2:10   0.00   58.9    89    3.5   318     5.4   1012.9    0.00 
 213    2:20   0.00   59.0    89    2.8   286     4.3   1012.9    0.00 
 213    2:30   0.00   59.0    88    2.8   273     5.1   1012.9    0.00 
 213    2:40   0.00   59.1    88    3.5   282     5.4   1012.9    0.00 
 213    2:50   0.00   59.1    88    3.8   290     6.1   1012.9    0.00 
 213    3:00   0.00   59.1    88    4.1   286     6.4   1012.9    0.00 

Return to Bodega Marine Reserve graphs page.


Western Regional Climate Center,wrcc@dri.edu